Details for Thomas Cook Airlines at EGNT




Go Back


Latest METAR
Local Time

EGNT 220820Z 26010KT 9999 FEW040 10/06 Q1013
22/09/2018, 09:52:32

Description
Results
Thomas Cook Airlines Logo
Number of Pilots based at EGNT
1 Pilots Based here
Number of Thomas Cook Airlines Flights Departed from EGNT
0 Flights Departed
Number of Thomas Cook Airlines Flights Arrived at EGNT
0 Flights Arrived
Number of Thomas Cook Airlines Schedules Departing from EGNT
9 Schedules
Number of Thomas Cook Airlines Schedules Arriving at EGNT
9 Schedules
Number of Thomas Cook Airlines Schedules Departing from EGNT availible today
2 Schedules Today
Number of Thomas Cook Airlines Schedules Arriving at EGNT availible today
2 Schedules Today
Average Landing Rate at EGNT
-258 fpm
Thomas Cook Airlines Average Landing Rate at EGNT
0 fpm
Total Fuel Purchased at EGNT by Thomas Cook Airlines
0.00 kgs / 0.00 lbs

Pilots Based at EGNT


Pilot ID
Pilot Name
Pilot Rank
No. of Flights
No. of Flying Hours
Michael Gow
122
372.54
Content